createdAt,value
2018-06-19T00:01:33.446Z,15.66
2018-06-19T00:04:01.729Z,15.62
2018-06-19T00:06:30.049Z,15.74
2018-06-19T00:08:58.301Z,15.68
2018-06-19T00:11:26.577Z,15.61
2018-06-19T00:13:54.817Z,15.53
2018-06-19T00:16:23.081Z,15.55
2018-06-19T00:18:54.516Z,15.58
2018-06-19T00:21:26.251Z,15.51
2018-06-19T00:23:54.609Z,15.40
2018-06-19T00:26:23.106Z,15.48
2018-06-19T00:28:51.397Z,15.51
2018-06-19T00:31:19.673Z,15.55
2018-06-19T00:33:47.969Z,15.73
2018-06-19T00:36:16.212Z,15.81
2018-06-19T00:38:44.681Z,15.80
2018-06-19T00:41:12.946Z,15.80
2018-06-19T00:43:41.193Z,15.82
2018-06-19T00:46:09.729Z,15.87
2018-06-19T00:48:38.100Z,15.92
2018-06-19T00:51:06.357Z,15.91
2018-06-19T00:53:34.617Z,15.78
2018-06-19T00:56:14.361Z,15.70
2018-06-19T00:58:43.005Z,15.81
2018-06-19T01:01:11.586Z,15.86
2018-06-19T01:03:39.856Z,15.68
2018-06-19T01:06:08.337Z,15.69
2018-06-19T01:08:36.599Z,15.65
2018-06-19T01:11:05.076Z,15.75
2018-06-19T01:13:33.314Z,15.74
2018-06-19T01:16:01.566Z,15.71
2018-06-19T01:18:30.009Z,15.62
2018-06-19T01:20:58.246Z,15.61
2018-06-19T01:23:26.536Z,15.47
2018-06-19T01:25:54.942Z,15.49
2018-06-19T01:28:23.203Z,15.56
2018-06-19T01:30:51.517Z,15.64
2018-06-19T01:33:19.797Z,15.47
2018-06-19T01:35:48.056Z,15.58
2018-06-19T01:38:16.320Z,15.68
2018-06-19T01:40:44.801Z,15.65
2018-06-19T01:43:13.041Z,15.68
2018-06-19T01:45:41.276Z,15.59
2018-06-19T01:48:09.563Z,15.61
2018-06-19T01:50:37.985Z,15.72
2018-06-19T01:53:06.222Z,15.75
2018-06-19T01:55:34.978Z,15.90
2018-06-19T01:58:03.212Z,15.95
2018-06-19T02:00:31.461Z,15.89
2018-06-19T02:03:00.011Z,15.74
2018-06-19T02:05:28.253Z,15.77
2018-06-19T02:07:56.489Z,15.81
2018-06-19T02:10:24.773Z,15.74
2018-06-19T02:12:53.041Z,15.71
2018-06-19T02:15:21.341Z,15.77
2018-06-19T02:17:49.664Z,15.61
2018-06-19T02:20:17.913Z,15.54
2018-06-19T02:22:46.157Z,15.52
2018-06-19T02:25:14.510Z,15.47
2018-06-19T02:27:42.764Z,15.50
2018-06-19T02:30:11.017Z,15.55
2018-06-19T02:32:39.303Z,15.63
2018-06-19T02:35:07.553Z,15.62
2018-06-19T02:37:35.805Z,15.73
2018-06-19T02:40:04.122Z,15.71
2018-06-19T02:42:32.413Z,15.77
2018-06-19T02:45:00.665Z,15.74
2018-06-19T02:47:29.079Z,15.67
2018-06-19T02:49:57.323Z,15.52
2018-06-19T02:52:25.609Z,15.52
2018-06-19T02:54:54.285Z,15.50
2018-06-19T02:57:22.553Z,15.66
2018-06-19T02:59:50.793Z,15.59
2018-06-19T03:02:19.057Z,15.78
2018-06-19T03:04:47.300Z,15.84
2018-06-19T03:07:15.572Z,15.83
2018-06-19T03:09:43.809Z,15.66
2018-06-19T03:12:12.072Z,15.78
2018-06-19T03:14:40.319Z,15.80
2018-06-19T03:17:08.596Z,15.66
2018-06-19T03:19:37.012Z,15.84
2018-06-19T03:22:05.325Z,15.82
2018-06-19T03:24:33.569Z,15.96
2018-06-19T03:27:01.841Z,15.91
2018-06-19T03:29:30.082Z,15.91
2018-06-19T03:31:58.353Z,15.98
2018-06-19T03:34:26.680Z,15.99
2018-06-19T03:36:54.969Z,15.87
2018-06-19T03:39:23.225Z,15.82
2018-06-19T03:41:51.471Z,15.79
2018-06-19T03:44:19.862Z,15.85
2018-06-19T03:46:48.133Z,15.88
2018-06-19T03:49:16.405Z,15.74
2018-06-19T03:51:44.649Z,15.80
2018-06-19T03:54:12.951Z,15.74
2018-06-19T03:56:41.222Z,15.83
2018-06-19T03:59:09.490Z,15.70
2018-06-19T04:01:37.749Z,16.00
2018-06-19T04:04:06.166Z,15.92
2018-06-19T04:06:34.405Z,16.05
2018-06-19T04:09:05.027Z,15.98
2018-06-19T04:11:33.276Z,16.01
2018-06-19T04:14:01.554Z,16.01
2018-06-19T04:16:29.828Z,16.10
2018-06-19T04:18:58.108Z,16.25
2018-06-19T04:21:26.357Z,16.39
2018-06-19T04:23:54.633Z,16.39
2018-06-19T04:26:22.878Z,16.38
2018-06-19T04:28:51.162Z,16.55
2018-06-19T04:31:19.397Z,16.43
2018-06-19T04:33:47.929Z,16.33
2018-06-19T04:36:16.187Z,16.44
2018-06-19T04:38:44.433Z,16.37
2018-06-19T04:41:12.792Z,16.73
2018-06-19T04:43:41.036Z,16.93
2018-06-19T04:46:09.315Z,16.85
2018-06-19T04:48:37.556Z,16.80
2018-06-19T04:51:05.933Z,16.83
2018-06-19T04:53:34.186Z,16.91
2018-06-19T04:56:02.508Z,16.88
2018-06-19T04:58:30.782Z,16.81
2018-06-19T05:00:59.049Z,17.02
2018-06-19T05:03:27.359Z,16.95
2018-06-19T05:05:55.670Z,17.03
2018-06-19T05:08:23.929Z,16.98
2018-06-19T05:10:52.201Z,17.06
2018-06-19T05:13:20.514Z,16.95
2018-06-19T05:15:48.775Z,17.18
2018-06-19T05:18:17.021Z,17.22
2018-06-19T05:20:45.285Z,17.21
2018-06-19T05:23:13.530Z,17.51
2018-06-19T05:25:41.806Z,17.24
2018-06-19T05:28:10.037Z,17.44
2018-06-19T05:30:38.308Z,17.45
2018-06-19T05:33:06.575Z,17.30
2018-06-19T05:35:34.867Z,17.30
2018-06-19T05:38:03.421Z,17.81
2018-06-19T05:40:31.778Z,17.65
2018-06-19T05:43:00.058Z,17.89
2018-06-19T05:45:28.473Z,17.89
2018-06-19T05:47:56.751Z,17.62
2018-06-19T05:50:24.996Z,17.44
2018-06-19T05:52:53.326Z,17.46
2018-06-19T05:55:21.544Z,17.28
2018-06-19T05:57:49.841Z,17.48
2018-06-19T06:00:18.184Z,17.26
2018-06-19T06:02:46.452Z,17.62
2018-06-19T06:05:14.825Z,17.72
2018-06-19T06:07:43.141Z,17.59
2018-06-19T06:10:11.378Z,17.53
2018-06-19T06:12:39.641Z,17.58
2018-06-19T06:15:07.884Z,17.78
2018-06-19T06:17:36.183Z,17.82
2018-06-19T06:20:05.217Z,18.07
2018-06-19T06:22:33.477Z,17.93
2018-06-19T06:25:01.724Z,18.25
2018-06-19T06:27:30.054Z,17.87
2018-06-19T06:29:58.372Z,18.00
2018-06-19T06:32:26.645Z,18.06
2018-06-19T06:34:54.919Z,17.59
2018-06-19T06:37:23.167Z,17.95
2018-06-19T06:39:51.473Z,18.11
2018-06-19T06:42:19.720Z,18.46
2018-06-19T06:44:48.063Z,18.25
2018-06-19T06:47:16.250Z,18.77
2018-06-19T06:49:44.522Z,18.50
2018-06-19T06:52:12.768Z,18.49
2018-06-19T06:54:41.078Z,18.04
2018-06-19T06:57:09.323Z,18.36
2018-06-19T06:59:37.593Z,18.39
2018-06-19T07:02:05.852Z,18.23
2018-06-19T07:04:34.277Z,17.95
2018-06-19T07:07:02.537Z,17.85
2018-06-19T07:09:30.953Z,17.70
2018-06-19T07:11:59.243Z,18.20
2018-06-19T07:14:27.494Z,17.90
2018-06-19T07:16:55.765Z,17.97
2018-06-19T07:19:24.050Z,18.02
2018-06-19T07:21:52.305Z,17.69
2018-06-19T07:24:20.548Z,17.66
2018-06-19T07:26:48.819Z,17.63
2018-06-19T07:29:17.061Z,17.63
2018-06-19T07:31:45.329Z,17.58
2018-06-19T07:34:13.701Z,17.65
2018-06-19T07:36:42.048Z,17.76
2018-06-19T07:39:11.024Z,17.82
2018-06-19T07:41:39.356Z,17.59
2018-06-19T07:44:07.685Z,17.56
2018-06-19T07:46:35.897Z,17.33
2018-06-19T07:49:04.158Z,17.23
2018-06-19T07:51:32.461Z,17.14
2018-06-19T07:54:00.889Z,17.03
2018-06-19T07:56:29.265Z,16.96
2018-06-19T07:58:57.501Z,16.80
2018-06-19T08:01:25.781Z,16.91
2018-06-19T08:03:54.025Z,17.26
2018-06-19T08:06:22.347Z,17.79
2018-06-19T08:08:50.606Z,18.22
2018-06-19T08:11:18.853Z,18.43
2018-06-19T08:13:47.134Z,18.23
2018-06-19T08:16:15.397Z,17.88
2018-06-19T08:18:43.732Z,18.25
2018-06-19T08:21:11.989Z,18.28
2018-06-19T08:23:40.297Z,18.40
2018-06-19T08:26:08.553Z,18.03
2018-06-19T08:28:36.862Z,17.85
2018-06-19T08:31:05.104Z,17.99
2018-06-19T08:33:33.408Z,17.50
2018-06-19T08:36:01.666Z,17.33
2018-06-19T08:38:29.945Z,17.49
2018-06-19T08:40:58.249Z,17.59
2018-06-19T08:43:26.556Z,17.89
2018-06-19T08:45:54.840Z,17.91
2018-06-19T08:48:23.129Z,17.81
2018-06-19T08:50:51.377Z,17.66
2018-06-19T08:53:19.692Z,17.62
2018-06-19T08:55:47.951Z,17.37
2018-06-19T08:58:16.261Z,17.72
2018-06-19T09:00:44.553Z,18.19
2018-06-19T09:03:12.824Z,18.06
2018-06-19T09:05:41.144Z,17.90
2018-06-19T09:08:09.393Z,18.71
2018-06-19T09:10:37.680Z,18.42
2018-06-19T09:13:05.954Z,18.33
2018-06-19T09:15:34.256Z,18.11
2018-06-19T09:18:02.529Z,17.97
2018-06-19T09:20:30.826Z,18.18
2018-06-19T09:22:59.089Z,18.20
2018-06-19T09:25:27.374Z,18.76
2018-06-19T09:27:55.665Z,19.05
2018-06-19T09:30:23.933Z,18.55
2018-06-19T09:32:52.177Z,18.44
2018-06-19T09:35:20.488Z,18.32
2018-06-19T09:37:48.726Z,18.16
2018-06-19T09:40:17.027Z,18.96
2018-06-19T09:42:45.389Z,18.69
2018-06-19T09:45:13.944Z,18.81
2018-06-19T09:47:42.393Z,19.82
2018-06-19T09:50:10.650Z,19.57
2018-06-19T09:52:38.989Z,19.57
2018-06-19T09:55:07.287Z,19.08
2018-06-19T09:57:35.957Z,19.27
2018-06-19T10:00:04.706Z,20.30
2018-06-19T10:02:33.177Z,20.21
2018-06-19T10:05:01.480Z,19.96
2018-06-19T10:07:29.769Z,20.89
2018-06-19T10:09:58.049Z,20.84
2018-06-19T10:12:26.360Z,20.93
2018-06-19T10:14:54.618Z,20.94
2018-06-19T10:17:23.033Z,20.61
2018-06-19T10:19:51.393Z,20.49
2018-06-19T10:22:19.676Z,20.05
2018-06-19T10:24:47.933Z,20.05
2018-06-19T10:27:16.210Z,20.32
2018-06-19T10:29:44.455Z,20.61
2018-06-19T10:32:12.780Z,20.57
2018-06-19T10:34:41.059Z,20.31
2018-06-19T10:37:09.329Z,20.91
2018-06-19T10:39:37.632Z,21.44
2018-06-19T10:42:06.197Z,21.43
2018-06-19T10:44:34.449Z,21.23
2018-06-19T10:47:02.713Z,21.09
2018-06-19T10:49:31.145Z,20.89
2018-06-19T10:51:59.405Z,21.51
2018-06-19T10:54:27.777Z,21.56
2018-06-19T10:56:56.017Z,21.13
2018-06-19T10:59:24.272Z,21.00
2018-06-19T11:01:52.526Z,22.00
2018-06-19T11:04:20.797Z,21.42
2018-06-19T11:06:49.049Z,21.08
2018-06-19T11:09:17.314Z,20.82
2018-06-19T11:11:45.607Z,20.93
2018-06-19T11:14:13.948Z,21.29
2018-06-19T11:16:42.119Z,20.68
2018-06-19T11:19:10.389Z,20.62
2018-06-19T11:21:38.665Z,20.72
2018-06-19T11:24:06.999Z,21.01
2018-06-19T11:26:35.257Z,20.83
2018-06-19T11:29:03.565Z,21.04
2018-06-19T11:31:31.797Z,20.57
2018-06-19T11:34:00.070Z,20.72
2018-06-19T11:36:28.313Z,20.77
2018-06-19T11:38:56.614Z,21.12
2018-06-19T11:41:24.884Z,21.73
2018-06-19T11:43:53.424Z,21.62
2018-06-19T11:46:21.701Z,22.08
2018-06-19T11:48:49.950Z,21.82
2018-06-19T11:51:18.259Z,21.18
2018-06-19T11:53:46.478Z,21.40
2018-06-19T11:56:14.737Z,20.73
2018-06-19T11:58:42.985Z,20.92
2018-06-19T12:01:11.386Z,21.30
2018-06-19T12:03:39.565Z,21.08
2018-06-19T12:06:07.863Z,21.38
2018-06-19T12:08:36.113Z,21.34
2018-06-19T12:11:04.385Z,21.32
2018-06-19T12:13:32.673Z,21.37
2018-06-19T12:16:00.974Z,21.33
2018-06-19T12:18:29.217Z,21.57
2018-06-19T12:20:57.521Z,21.00
2018-06-19T12:23:26.011Z,21.78
2018-06-19T12:25:54.288Z,22.22
2018-06-19T12:28:22.571Z,22.89
2018-06-19T12:30:50.832Z,22.75
2018-06-19T12:33:19.101Z,22.51
2018-06-19T12:35:47.361Z,23.06
2018-06-19T12:38:15.621Z,22.38
2018-06-19T12:40:44.025Z,21.92
2018-06-19T12:43:12.813Z,21.30
2018-06-19T12:45:41.049Z,21.62
2018-06-19T12:48:09.336Z,21.60
2018-06-19T12:50:48.721Z,21.28
2018-06-19T12:53:28.364Z,21.69
2018-06-19T12:56:08.109Z,21.40
2018-06-19T12:58:36.417Z,21.51
2018-06-19T13:01:04.662Z,21.47
2018-06-19T13:03:44.360Z,20.90
2018-06-19T13:06:24.026Z,20.62
2018-06-19T13:08:52.325Z,21.18
2018-06-19T13:11:20.561Z,21.44
2018-06-19T13:14:00.057Z,21.56
2018-06-19T13:16:39.552Z,21.71
2018-06-19T13:19:23.469Z,21.64
2018-06-19T13:21:51.964Z,21.52
2018-06-19T13:24:20.432Z,21.89
2018-06-19T13:26:48.625Z,21.27
2018-06-19T13:29:39.557Z,21.39
2018-06-19T13:32:07.814Z,21.37
2018-06-19T13:34:36.649Z,21.72
2018-06-19T13:37:05.405Z,21.94
2018-06-19T13:39:34.217Z,22.16
2018-06-19T13:42:14.217Z,22.65
2018-06-19T13:44:56.909Z,23.09
2018-06-19T13:47:25.249Z,22.72
2018-06-19T13:49:53.714Z,23.73
2018-06-19T13:52:22.033Z,23.81
2018-06-19T13:54:50.292Z,25.76
2018-06-19T13:57:32.465Z,25.94
2018-06-19T14:00:02.109Z,25.59
2018-06-19T14:02:30.446Z,24.96
2018-06-19T14:04:59.072Z,26.74
2018-06-19T14:07:28.483Z,25.02
2018-06-19T14:10:08.321Z,26.35
2018-06-19T14:13:13.036Z,28.05
2018-06-19T14:15:44.342Z,29.47
2018-06-19T14:18:13.526Z,29.40
2018-06-19T14:20:42.409Z,33.09
2018-06-19T14:23:10.893Z,30.39
2018-06-19T14:25:39.221Z,27.22
2018-06-19T14:28:07.602Z,27.40
2018-06-19T14:30:36.001Z,27.43
2018-06-19T14:33:04.386Z,28.54
2018-06-19T14:35:32.598Z,29.27
2018-06-19T14:38:00.832Z,29.97
2018-06-19T14:40:29.181Z,32.57
2018-06-19T14:42:57.431Z,32.02
2018-06-19T14:45:25.845Z,32.52
2018-06-19T14:47:54.112Z,29.96
2018-06-19T14:50:22.374Z,32.12
2018-06-19T14:52:50.621Z,31.28
2018-06-19T14:55:18.906Z,30.52
2018-06-19T14:57:47.205Z,33.76
2018-06-19T15:00:15.489Z,29.32
2018-06-19T15:02:43.735Z,30.87
2018-06-19T15:05:12.018Z,31.89
2018-06-19T15:07:45.646Z,30.93
2018-06-19T15:10:16.110Z,31.32
2018-06-19T15:12:44.381Z,30.67
2018-06-19T15:15:12.756Z,35.54
2018-06-19T15:17:41.067Z,34.03
2018-06-19T15:20:09.377Z,35.76
2018-06-19T15:22:37.679Z,32.07
2018-06-19T15:25:06.063Z,35.83
2018-06-19T15:27:34.490Z,32.16
2018-06-19T15:30:03.368Z,32.01
2018-06-19T15:32:31.644Z,31.08
2018-06-19T15:34:59.950Z,34.11
2018-06-19T15:37:28.244Z,36.45
2018-06-19T15:39:56.614Z,33.64
2018-06-19T15:42:24.945Z,32.81
2018-06-19T15:44:53.396Z,32.07
2018-06-19T15:47:21.711Z,30.77
2018-06-19T15:49:50.124Z,31.31
2018-06-19T15:52:18.463Z,29.32
2018-06-19T15:54:47.608Z,33.04
2018-06-19T15:57:15.937Z,34.49
2018-06-19T15:59:44.381Z,34.37
2018-06-19T16:02:12.697Z,36.72
2018-06-19T16:04:40.976Z,30.54
2018-06-19T16:07:09.297Z,30.34
2018-06-19T16:09:37.605Z,32.65
2018-06-19T16:12:06.120Z,32.07
2018-06-19T16:14:34.425Z,34.30
2018-06-19T16:17:02.874Z,34.25
2018-06-19T16:19:33.233Z,32.32
2018-06-19T16:22:01.601Z,33.68
2018-06-19T16:24:29.895Z,34.84
2018-06-19T16:26:58.269Z,33.39
2018-06-19T16:29:26.537Z,33.14
2018-06-19T16:31:54.990Z,34.28
2018-06-19T16:34:23.365Z,33.65
2018-06-19T16:36:51.708Z,31.17
2018-06-19T16:39:20.045Z,31.81
2018-06-19T16:41:48.373Z,36.88
2018-06-19T16:44:16.685Z,32.59
2018-06-19T16:46:45.090Z,29.62
2018-06-19T16:49:13.818Z,30.44
2018-06-19T16:51:42.113Z,32.09
2018-06-19T16:54:10.445Z,31.43
2018-06-19T16:56:38.741Z,32.76
2018-06-19T16:59:07.065Z,31.10
2018-06-19T17:01:35.352Z,34.25
2018-06-19T17:04:03.673Z,32.53
2018-06-19T17:06:31.985Z,30.11
2018-06-19T17:09:00.337Z,31.74
2018-06-19T17:11:28.621Z,28.47
2018-06-19T17:13:56.966Z,31.02
2018-06-19T17:16:25.262Z,30.67
2018-06-19T17:18:53.609Z,27.56
2018-06-19T17:21:21.971Z,28.31
2018-06-19T17:23:50.250Z,30.19
2018-06-19T17:26:18.540Z,32.38
2018-06-19T17:28:46.860Z,29.66
2018-06-19T17:31:15.198Z,28.70
2018-06-19T17:33:43.500Z,27.35
2018-06-19T17:36:11.822Z,28.73
2018-06-19T17:38:40.167Z,29.33
2018-06-19T17:41:08.480Z,31.58
2018-06-19T17:43:36.815Z,30.07
2018-06-19T17:46:05.137Z,27.90
2018-06-19T17:48:33.409Z,22.33
2018-06-19T17:51:01.675Z,21.00
2018-06-19T17:53:29.925Z,20.52
2018-06-19T17:55:58.213Z,20.02
2018-06-19T17:58:26.476Z,19.02
2018-06-19T18:00:54.825Z,18.97
2018-06-19T18:03:23.109Z,18.57
2018-06-19T18:05:51.402Z,18.58
2018-06-19T18:08:19.668Z,18.57
2018-06-19T18:10:48.072Z,18.39
2018-06-19T18:13:16.272Z,18.29
2018-06-19T18:15:44.553Z,18.57
2018-06-19T18:18:12.841Z,18.57
2018-06-19T18:20:41.448Z,18.77
2018-06-19T18:23:09.755Z,18.73
2018-06-19T18:25:38.107Z,18.72
2018-06-19T18:28:06.382Z,18.18
2018-06-19T18:30:34.695Z,18.00
2018-06-19T18:33:03.136Z,17.72
2018-06-19T18:35:31.450Z,17.55
2018-06-19T18:37:59.729Z,17.48
2018-06-19T18:40:28.013Z,17.36
2018-06-19T18:42:56.382Z,17.46
2018-06-19T18:45:24.677Z,17.54
2018-06-19T18:47:52.961Z,17.40
2018-06-19T18:50:21.242Z,17.41
2018-06-19T18:52:49.546Z,17.13
2018-06-19T18:55:17.839Z,17.26
2018-06-19T18:57:46.120Z,16.95
2018-06-19T19:00:14.420Z,16.82
2018-06-19T19:02:42.721Z,16.91
2018-06-19T19:05:10.973Z,16.82
2018-06-19T19:07:39.250Z,16.91
2018-06-19T19:10:12.949Z,16.82
2018-06-19T19:12:41.233Z,16.98
2018-06-19T19:15:14.766Z,17.04
2018-06-19T19:17:48.484Z,16.67
2018-06-19T19:20:16.752Z,16.69
2018-06-19T19:22:45.033Z,16.72
2018-06-19T19:25:13.297Z,16.53
2018-06-19T19:27:46.893Z,16.47
2018-06-19T19:30:15.153Z,16.27
2018-06-19T19:32:43.438Z,16.16
2018-06-19T19:35:11.702Z,16.18
2018-06-19T19:37:45.200Z,16.22
2018-06-19T19:40:13.553Z,15.99
2018-06-19T19:42:42.020Z,15.83
2018-06-19T19:45:16.033Z,15.72
2018-06-19T19:47:52.153Z,15.63
2018-06-19T19:50:21.928Z,15.57
2018-06-19T19:57:15.641Z,15.48
2018-06-19T20:23:46.723Z,15.27
2018-06-19T20:26:16.310Z,15.26
2018-06-19T20:28:44.838Z,15.14
2018-06-19T20:31:14.092Z,15.05
2018-06-19T20:33:43.134Z,15.11
2018-06-19T20:55:25.702Z,14.68
2018-06-19T20:57:55.014Z,14.82
2018-06-19T21:00:29.454Z,14.77
2018-06-19T21:03:14.441Z,14.67
2018-06-19T21:05:43.098Z,14.65
2018-06-19T21:08:11.292Z,14.47
2018-06-19T21:53:54.447Z,14.29
2018-06-19T21:56:22.919Z,14.19
2018-06-19T21:58:51.506Z,14.23
2018-06-19T22:01:19.978Z,14.16
2018-06-19T22:37:18.877Z,13.75
2018-06-19T22:39:47.087Z,13.77
2018-06-19T22:42:15.325Z,13.80
2018-06-19T23:06:06.639Z,13.39
2018-06-19T23:19:29.898Z,13.48
2018-06-19T23:21:58.092Z,13.30
2018-06-19T23:24:26.282Z,13.40
2018-06-19T23:26:54.461Z,13.29
2018-06-19T23:29:22.632Z,13.43
2018-06-19T23:32:04.747Z,13.43
